sensor_id;sensor_type;location;lat;lon;timestamp;P1;durP1;ratioP1;P2;durP2;ratioP2
211;SDS011;16228;48.800;9.002;2023-08-24T00:01:24;7.23;;;6.63;;
211;SDS011;16228;48.800;9.002;2023-08-24T00:03:51;7.97;;;7.27;;
211;SDS011;16228;48.800;9.002;2023-08-24T00:06:18;8.53;;;7.70;;
211;SDS011;16228;48.800;9.002;2023-08-24T00:08:45;9.03;;;8.23;;
211;SDS011;16228;48.800;9.002;2023-08-24T00:11:12;9.60;;;8.60;;
211;SDS011;16228;48.800;9.002;2023-08-24T00:13:42;9.50;;;8.67;;
211;SDS011;16228;48.800;9.002;2023-08-24T00:16:13;10.10;;;8.10;;
211;SDS011;16228;48.800;9.002;2023-08-24T00:18:40;10.53;;;9.53;;
211;SDS011;16228;48.800;9.002;2023-08-24T00:21:07;10.83;;;8.97;;
211;SDS011;16228;48.800;9.002;2023-08-24T00:23:34;11.87;;;9.30;;
211;SDS011;16228;48.800;9.002;2023-08-24T00:26:01;9.03;;;8.23;;
211;SDS011;16228;48.800;9.002;2023-08-24T00:28:28;10.43;;;9.33;;
211;SDS011;16228;48.800;9.002;2023-08-24T00:30:57;9.57;;;8.57;;
211;SDS011;16228;48.800;9.002;2023-08-24T00:33:24;9.33;;;8.27;;
211;SDS011;16228;48.800;9.002;2023-08-24T00:35:51;9.97;;;9.07;;
211;SDS011;16228;48.800;9.002;2023-08-24T00:38:18;9.60;;;8.70;;
211;SDS011;16228;48.800;9.002;2023-08-24T00:40:44;9.50;;;8.57;;
211;SDS011;16228;48.800;9.002;2023-08-24T00:43:11;10.03;;;9.13;;
211;SDS011;16228;48.800;9.002;2023-08-24T00:45:39;9.97;;;9.07;;
211;SDS011;16228;48.800;9.002;2023-08-24T00:48:07;10.10;;;9.10;;
211;SDS011;16228;48.800;9.002;2023-08-24T00:50:35;10.10;;;8.93;;
211;SDS011;16228;48.800;9.002;2023-08-24T00:53:02;10.23;;;9.33;;
211;SDS011;16228;48.800;9.002;2023-08-24T00:55:30;9.63;;;8.83;;
211;SDS011;16228;48.800;9.002;2023-08-24T00:57:57;9.50;;;8.63;;
211;SDS011;16228;48.800;9.002;2023-08-24T01:00:25;10.17;;;9.30;;
211;SDS011;16228;48.800;9.002;2023-08-24T01:02:52;9.80;;;8.90;;
211;SDS011;16228;48.800;9.002;2023-08-24T01:05:20;9.27;;;8.27;;
211;SDS011;16228;48.800;9.002;2023-08-24T01:07:47;11.10;;;8.90;;
211;SDS011;16228;48.800;9.002;2023-08-24T01:10:14;11.07;;;8.70;;
211;SDS011;16228;48.800;9.002;2023-08-24T01:12:52;11.67;;;10.47;;
211;SDS011;16228;48.800;9.002;2023-08-24T01:15:29;10.50;;;9.60;;
211;SDS011;16228;48.800;9.002;2023-08-24T01:18:04;8.40;;;7.70;;
211;SDS011;16228;48.800;9.002;2023-08-24T01:20:36;8.73;;;8.03;;
211;SDS011;16228;48.800;9.002;2023-08-24T01:23:07;8.97;;;8.23;;
211;SDS011;16228;48.800;9.002;2023-08-24T01:25:46;10.77;;;9.60;;
211;SDS011;16228;48.800;9.002;2023-08-24T01:28:19;10.27;;;8.47;;
211;SDS011;16228;48.800;9.002;2023-08-24T01:30:47;9.33;;;8.17;;
211;SDS011;16228;48.800;9.002;2023-08-24T01:33:14;11.77;;;9.47;;
211;SDS011;16228;48.800;9.002;2023-08-24T01:35:41;10.53;;;9.50;;
211;SDS011;16228;48.800;9.002;2023-08-24T01:38:09;11.57;;;9.30;;
211;SDS011;16228;48.800;9.002;2023-08-24T01:40:40;10.97;;;10.00;;
211;SDS011;16228;48.800;9.002;2023-08-24T01:43:15;10.13;;;9.23;;
211;SDS011;16228;48.800;9.002;2023-08-24T01:45:47;10.07;;;9.27;;
211;SDS011;16228;48.800;9.002;2023-08-24T01:48:16;9.50;;;8.70;;
211;SDS011;16228;48.800;9.002;2023-08-24T01:50:43;11.00;;;9.90;;
211;SDS011;16228;48.800;9.002;2023-08-24T01:53:11;11.37;;;10.27;;
211;SDS011;16228;48.800;9.002;2023-08-24T01:55:38;10.90;;;9.80;;
211;SDS011;16228;48.800;9.002;2023-08-24T01:58:08;9.63;;;8.73;;
211;SDS011;16228;48.800;9.002;2023-08-24T02:00:36;9.90;;;9.00;;
211;SDS011;16228;48.800;9.002;2023-08-24T02:03:03;10.10;;;9.20;;
211;SDS011;16228;48.800;9.002;2023-08-24T02:05:31;11.00;;;10.00;;
211;SDS011;16228;48.800;9.002;2023-08-24T02:07:58;10.87;;;9.90;;
211;SDS011;16228;48.800;9.002;2023-08-24T02:10:25;11.53;;;10.53;;
211;SDS011;16228;48.800;9.002;2023-08-24T02:12:52;10.57;;;9.67;;
211;SDS011;16228;48.800;9.002;2023-08-24T02:15:19;10.50;;;9.60;;
211;SDS011;16228;48.800;9.002;2023-08-24T02:17:47;11.43;;;10.27;;
211;SDS011;16228;48.800;9.002;2023-08-24T02:20:14;11.83;;;10.73;;
211;SDS011;16228;48.800;9.002;2023-08-24T02:22:41;11.93;;;10.73;;
211;SDS011;16228;48.800;9.002;2023-08-24T02:25:09;10.40;;;9.50;;
211;SDS011;16228;48.800;9.002;2023-08-24T02:27:36;10.23;;;9.10;;
211;SDS011;16228;48.800;9.002;2023-08-24T02:30:03;12.80;;;11.60;;
211;SDS011;16228;48.800;9.002;2023-08-24T02:32:31;11.03;;;9.93;;
211;SDS011;16228;48.800;9.002;2023-08-24T02:34:59;11.83;;;9.90;;
211;SDS011;16228;48.800;9.002;2023-08-24T02:37:26;9.90;;;9.03;;
211;SDS011;16228;48.800;9.002;2023-08-24T02:39:53;12.03;;;9.80;;
211;SDS011;16228;48.800;9.002;2023-08-24T02:42:20;11.00;;;9.90;;
211;SDS011;16228;48.800;9.002;2023-08-24T02:44:47;11.20;;;9.67;;
211;SDS011;16228;48.800;9.002;2023-08-24T02:47:14;10.80;;;9.70;;
211;SDS011;16228;48.800;9.002;2023-08-24T02:49:41;9.97;;;8.97;;
211;SDS011;16228;48.800;9.002;2023-08-24T02:52:10;10.37;;;9.37;;
211;SDS011;16228;48.800;9.002;2023-08-24T02:54:36;10.07;;;9.07;;
211;SDS011;16228;48.800;9.002;2023-08-24T02:57:03;10.53;;;9.43;;
211;SDS011;16228;48.800;9.002;2023-08-24T02:59:30;10.30;;;9.40;;
211;SDS011;16228;48.800;9.002;2023-08-24T03:01:58;11.40;;;10.00;;
211;SDS011;16228;48.800;9.002;2023-08-24T03:04:25;11.17;;;9.50;;
211;SDS011;16228;48.800;9.002;2023-08-24T03:06:53;10.87;;;9.77;;
211;SDS011;16228;48.800;9.002;2023-08-24T03:09:21;10.47;;;9.43;;
211;SDS011;16228;48.800;9.002;2023-08-24T03:11:48;11.67;;;9.50;;
211;SDS011;16228;48.800;9.002;2023-08-24T03:14:15;10.03;;;9.10;;
211;SDS011;16228;48.800;9.002;2023-08-24T03:16:43;10.10;;;8.93;;
211;SDS011;16228;48.800;9.002;2023-08-24T03:19:10;11.13;;;10.03;;
211;SDS011;16228;48.800;9.002;2023-08-24T03:21:39;11.80;;;8.77;;
211;SDS011;16228;48.800;9.002;2023-08-24T03:24:06;10.13;;;9.33;;
211;SDS011;16228;48.800;9.002;2023-08-24T03:26:35;10.73;;;9.63;;
211;SDS011;16228;48.800;9.002;2023-08-24T03:29:02;10.23;;;9.33;;
211;SDS011;16228;48.800;9.002;2023-08-24T03:31:29;11.03;;;9.93;;
211;SDS011;16228;48.800;9.002;2023-08-24T03:33:56;10.17;;;9.17;;
211;SDS011;16228;48.800;9.002;2023-08-24T03:36:23;11.80;;;10.67;;
211;SDS011;16228;48.800;9.002;2023-08-24T03:38:49;11.23;;;10.17;;
211;SDS011;16228;48.800;9.002;2023-08-24T03:41:16;10.30;;;9.37;;
211;SDS011;16228;48.800;9.002;2023-08-24T03:43:45;9.33;;;8.50;;
211;SDS011;16228;48.800;9.002;2023-08-24T03:46:12;10.73;;;9.87;;
211;SDS011;16228;48.800;9.002;2023-08-24T03:48:39;10.53;;;9.67;;
211;SDS011;16228;48.800;9.002;2023-08-24T03:51:06;9.63;;;8.73;;
211;SDS011;16228;48.800;9.002;2023-08-24T03:53:32;9.37;;;8.53;;
211;SDS011;16228;48.800;9.002;2023-08-24T03:55:59;10.53;;;8.60;;
211;SDS011;16228;48.800;9.002;2023-08-24T03:58:26;9.57;;;8.57;;
211;SDS011;16228;48.800;9.002;2023-08-24T04:00:55;10.33;;;8.40;;
211;SDS011;16228;48.800;9.002;2023-08-24T04:03:22;9.70;;;8.67;;
211;SDS011;16228;48.800;9.002;2023-08-24T04:05:49;9.30;;;8.40;;
211;SDS011;16228;48.800;9.002;2023-08-24T04:08:16;8.00;;;7.30;;
211;SDS011;16228;48.800;9.002;2023-08-24T04:10:43;8.80;;;7.90;;
211;SDS011;16228;48.800;9.002;2023-08-24T04:13:10;8.43;;;7.60;;
211;SDS011;16228;48.800;9.002;2023-08-24T04:15:37;8.10;;;7.30;;
211;SDS011;16228;48.800;9.002;2023-08-24T04:18:05;7.80;;;7.10;;
211;SDS011;16228;48.800;9.002;2023-08-24T04:20:32;8.13;;;7.20;;
211;SDS011;16228;48.800;9.002;2023-08-24T04:22:59;9.23;;;8.13;;
211;SDS011;16228;48.800;9.002;2023-08-24T04:25:26;7.63;;;6.83;;
211;SDS011;16228;48.800;9.002;2023-08-24T04:27:54;9.20;;;8.10;;
211;SDS011;16228;48.800;9.002;2023-08-24T04:30:21;7.50;;;6.80;;
211;SDS011;16228;48.800;9.002;2023-08-24T04:32:48;8.23;;;7.37;;
211;SDS011;16228;48.800;9.002;2023-08-24T04:35:17;8.70;;;7.60;;
211;SDS011;16228;48.800;9.002;2023-08-24T04:37:44;8.87;;;8.03;;
211;SDS011;16228;48.800;9.002;2023-08-24T04:40:11;9.00;;;8.20;;
211;SDS011;16228;48.800;9.002;2023-08-24T04:42:38;9.33;;;8.43;;
211;SDS011;16228;48.800;9.002;2023-08-24T04:45:06;7.70;;;7.00;;
211;SDS011;16228;48.800;9.002;2023-08-24T04:47:34;9.23;;;8.17;;
211;SDS011;16228;48.800;9.002;2023-08-24T04:50:01;9.47;;;8.57;;
211;SDS011;16228;48.800;9.002;2023-08-24T04:52:30;10.17;;;9.27;;
211;SDS011;16228;48.800;9.002;2023-08-24T04:54:57;8.37;;;7.57;;
211;SDS011;16228;48.800;9.002;2023-08-24T04:57:24;9.80;;;8.90;;
211;SDS011;16228;48.800;9.002;2023-08-24T04:59:51;9.97;;;8.97;;
211;SDS011;16228;48.800;9.002;2023-08-24T05:02:18;10.27;;;9.20;;
211;SDS011;16228;48.800;9.002;2023-08-24T05:04:45;9.67;;;8.87;;
211;SDS011;16228;48.800;9.002;2023-08-24T05:07:13;9.60;;;8.70;;
211;SDS011;16228;48.800;9.002;2023-08-24T05:09:42;7.77;;;7.13;;
211;SDS011;16228;48.800;9.002;2023-08-24T05:12:09;10.23;;;9.23;;
211;SDS011;16228;48.800;9.002;2023-08-24T05:14:36;8.00;;;7.20;;
211;SDS011;16228;48.800;9.002;2023-08-24T05:17:02;10.33;;;9.43;;
211;SDS011;16228;48.800;9.002;2023-08-24T05:19:30;8.90;;;8.20;;
211;SDS011;16228;48.800;9.002;2023-08-24T05:21:57;9.00;;;8.13;;
211;SDS011;16228;48.800;9.002;2023-08-24T05:24:24;9.87;;;8.13;;
211;SDS011;16228;48.800;9.002;2023-08-24T05:26:52;9.70;;;7.93;;
211;SDS011;16228;48.800;9.002;2023-08-24T05:29:19;10.00;;;8.73;;
211;SDS011;16228;48.800;9.002;2023-08-24T05:31:46;9.33;;;8.33;;
211;SDS011;16228;48.800;9.002;2023-08-24T05:34:13;7.93;;;7.23;;
211;SDS011;16228;48.800;9.002;2023-08-24T05:36:40;7.90;;;7.10;;
211;SDS011;16228;48.800;9.002;2023-08-24T05:39:07;9.27;;;7.40;;
211;SDS011;16228;48.800;9.002;2023-08-24T05:41:34;10.50;;;8.23;;
211;SDS011;16228;48.800;9.002;2023-08-24T05:44:03;8.20;;;7.20;;
211;SDS011;16228;48.800;9.002;2023-08-24T05:46:30;8.27;;;7.40;;
211;SDS011;16228;48.800;9.002;2023-08-24T05:48:58;8.47;;;7.63;;
211;SDS011;16228;48.800;9.002;2023-08-24T05:51:25;7.97;;;6.53;;
211;SDS011;16228;48.800;9.002;2023-08-24T05:53:52;7.23;;;6.53;;
211;SDS011;16228;48.800;9.002;2023-08-24T05:56:20;8.53;;;7.00;;
211;SDS011;16228;48.800;9.002;2023-08-24T05:58:48;7.33;;;5.60;;
211;SDS011;16228;48.800;9.002;2023-08-24T06:01:16;7.30;;;6.03;;
211;SDS011;16228;48.800;9.002;2023-08-24T06:03:43;8.50;;;6.67;;
211;SDS011;16228;48.800;9.002;2023-08-24T06:06:10;8.20;;;6.00;;
211;SDS011;16228;48.800;9.002;2023-08-24T06:08:37;7.07;;;6.40;;
211;SDS011;16228;48.800;9.002;2023-08-24T06:11:04;8.63;;;6.30;;
211;SDS011;16228;48.800;9.002;2023-08-24T06:13:31;6.27;;;5.60;;
211;SDS011;16228;48.800;9.002;2023-08-24T06:15:59;7.33;;;5.53;;
211;SDS011;16228;48.800;9.002;2023-08-24T06:18:28;6.73;;;6.00;;
211;SDS011;16228;48.800;9.002;2023-08-24T06:20:55;6.67;;;6.07;;
211;SDS011;16228;48.800;9.002;2023-08-24T06:23:22;5.90;;;5.40;;
211;SDS011;16228;48.800;9.002;2023-08-24T06:25:49;6.07;;;5.57;;
211;SDS011;16228;48.800;9.002;2023-08-24T06:28:16;7.33;;;4.97;;
211;SDS011;16228;48.800;9.002;2023-08-24T06:30:43;7.63;;;5.50;;
211;SDS011;16228;48.800;9.002;2023-08-24T06:33:11;6.57;;;5.47;;
211;SDS011;16228;48.800;9.002;2023-08-24T06:35:40;6.87;;;5.47;;
211;SDS011;16228;48.800;9.002;2023-08-24T06:38:07;9.83;;;5.40;;
211;SDS011;16228;48.800;9.002;2023-08-24T06:40:34;10.83;;;5.53;;
211;SDS011;16228;48.800;9.002;2023-08-24T06:43:01;8.67;;;5.50;;
211;SDS011;16228;48.800;9.002;2023-08-24T06:45:28;6.90;;;4.93;;
211;SDS011;16228;48.800;9.002;2023-08-24T06:47:55;9.43;;;6.27;;
211;SDS011;16228;48.800;9.002;2023-08-24T06:50:22;7.93;;;4.70;;
211;SDS011;16228;48.800;9.002;2023-08-24T06:52:50;8.10;;;5.10;;
211;SDS011;16228;48.800;9.002;2023-08-24T06:55:17;9.73;;;5.50;;
211;SDS011;16228;48.800;9.002;2023-08-24T06:57:47;9.70;;;5.87;;
211;SDS011;16228;48.800;9.002;2023-08-24T07:00:15;10.60;;;5.40;;
211;SDS011;16228;48.800;9.002;2023-08-24T07:02:44;7.73;;;5.10;;
211;SDS011;16228;48.800;9.002;2023-08-24T07:05:12;6.30;;;5.00;;
211;SDS011;16228;48.800;9.002;2023-08-24T07:07:39;7.13;;;5.37;;
211;SDS011;16228;48.800;9.002;2023-08-24T07:10:10;10.67;;;5.47;;
211;SDS011;16228;48.800;9.002;2023-08-24T07:12:37;7.57;;;5.00;;
211;SDS011;16228;48.800;9.002;2023-08-24T07:15:06;10.07;;;5.30;;
211;SDS011;16228;48.800;9.002;2023-08-24T07:17:33;8.77;;;6.00;;
211;SDS011;16228;48.800;9.002;2023-08-24T07:20:00;10.30;;;4.70;;
211;SDS011;16228;48.800;9.002;2023-08-24T07:22:30;8.33;;;5.00;;
211;SDS011;16228;48.800;9.002;2023-08-24T07:24:57;5.87;;;4.67;;
211;SDS011;16228;48.800;9.002;2023-08-24T07:27:26;8.50;;;4.73;;
211;SDS011;16228;48.800;9.002;2023-08-24T07:29:53;8.63;;;5.17;;
211;SDS011;16228;48.800;9.002;2023-08-24T07:32:20;7.80;;;4.40;;
211;SDS011;16228;48.800;9.002;2023-08-24T07:34:49;9.43;;;5.30;;
211;SDS011;16228;48.800;9.002;2023-08-24T07:37:15;6.87;;;3.80;;
211;SDS011;16228;48.800;9.002;2023-08-24T07:39:42;7.80;;;3.60;;
211;SDS011;16228;48.800;9.002;2023-08-24T07:42:09;6.35;;;3.67;;
211;SDS011;16228;48.800;9.002;2023-08-24T07:44:38;7.22;;;3.50;;
211;SDS011;16228;48.800;9.002;2023-08-24T07:47:05;5.85;;;3.55;;
211;SDS011;16228;48.800;9.002;2023-08-24T07:49:32;7.55;;;3.40;;
211;SDS011;16228;48.800;9.002;2023-08-24T07:51:59;3.72;;;2.97;;
211;SDS011;16228;48.800;9.002;2023-08-24T07:54:25;3.88;;;3.17;;
211;SDS011;16228;48.800;9.002;2023-08-24T07:56:52;3.95;;;3.20;;
211;SDS011;16228;48.800;9.002;2023-08-24T07:59:19;3.53;;;2.60;;
211;SDS011;16228;48.800;9.002;2023-08-24T08:01:48;8.00;;;3.20;;
211;SDS011;16228;48.800;9.002;2023-08-24T08:04:15;6.57;;;3.47;;
211;SDS011;16228;48.800;9.002;2023-08-24T08:06:42;5.28;;;3.22;;
211;SDS011;16228;48.800;9.002;2023-08-24T08:09:09;8.48;;;3.50;;
211;SDS011;16228;48.800;9.002;2023-08-24T08:11:36;5.60;;;3.45;;
211;SDS011;16228;48.800;9.002;2023-08-24T08:14:03;5.22;;;3.08;;
211;SDS011;16228;48.800;9.002;2023-08-24T08:16:30;7.18;;;3.50;;
211;SDS011;16228;48.800;9.002;2023-08-24T08:18:59;7.28;;;3.88;;
211;SDS011;16228;48.800;9.002;2023-08-24T08:21:25;6.50;;;3.15;;
211;SDS011;16228;48.800;9.002;2023-08-24T08:23:53;4.78;;;2.97;;
211;SDS011;16228;48.800;9.002;2023-08-24T08:26:20;5.80;;;3.65;;
211;SDS011;16228;48.800;9.002;2023-08-24T08:28:47;6.13;;;3.75;;
211;SDS011;16228;48.800;9.002;2023-08-24T08:31:14;6.00;;;3.10;;
211;SDS011;16228;48.800;9.002;2023-08-24T08:33:41;7.68;;;2.90;;
211;SDS011;16228;48.800;9.002;2023-08-24T08:36:09;6.35;;;3.22;;
211;SDS011;16228;48.800;9.002;2023-08-24T08:38:36;5.55;;;3.35;;
211;SDS011;16228;48.800;9.002;2023-08-24T08:41:03;6.22;;;3.53;;
211;SDS011;16228;48.800;9.002;2023-08-24T08:43:30;5.72;;;4.20;;
211;SDS011;16228;48.800;9.002;2023-08-24T08:45:58;6.13;;;4.03;;
211;SDS011;16228;48.800;9.002;2023-08-24T08:48:26;6.82;;;3.60;;
211;SDS011;16228;48.800;9.002;2023-08-24T08:50:57;4.97;;;2.92;;
211;SDS011;16228;48.800;9.002;2023-08-24T08:53:27;4.82;;;3.58;;
211;SDS011;16228;48.800;9.002;2023-08-24T08:55:55;4.28;;;3.88;;
211;SDS011;16228;48.800;9.002;2023-08-24T08:58:28;4.35;;;3.95;;
211;SDS011;16228;48.800;9.002;2023-08-24T09:00:57;4.22;;;3.22;;
211;SDS011;16228;48.800;9.002;2023-08-24T09:03:25;5.45;;;3.50;;
211;SDS011;16228;48.800;9.002;2023-08-24T09:05:55;3.25;;;2.95;;
211;SDS011;16228;48.800;9.002;2023-08-24T09:08:23;4.32;;;3.30;;
211;SDS011;16228;48.800;9.002;2023-08-24T09:10:53;4.50;;;3.08;;
211;SDS011;16228;48.800;9.002;2023-08-24T09:13:20;4.70;;;3.60;;
211;SDS011;16228;48.800;9.002;2023-08-24T09:15:47;4.07;;;3.20;;
211;SDS011;16228;48.800;9.002;2023-08-24T09:18:17;6.72;;;3.65;;
211;SDS011;16228;48.800;9.002;2023-08-24T09:20:45;8.60;;;3.22;;
211;SDS011;16228;48.800;9.002;2023-08-24T09:23:19;9.70;;;4.18;;
211;SDS011;16228;48.800;9.002;2023-08-24T09:25:46;4.05;;;3.33;;
211;SDS011;16228;48.800;9.002;2023-08-24T09:28:15;6.25;;;3.47;;
211;SDS011;16228;48.800;9.002;2023-08-24T09:30:52;6.80;;;4.07;;
211;SDS011;16228;48.800;9.002;2023-08-24T09:33:20;11.10;;;3.50;;
211;SDS011;16228;48.800;9.002;2023-08-24T09:35:51;6.07;;;3.10;;
211;SDS011;16228;48.800;9.002;2023-08-24T09:38:19;7.00;;;3.42;;
211;SDS011;16228;48.800;9.002;2023-08-24T09:40:50;4.85;;;3.30;;
211;SDS011;16228;48.800;9.002;2023-08-24T09:43:19;5.50;;;3.47;;
211;SDS011;16228;48.800;9.002;2023-08-24T09:45:49;6.78;;;3.63;;
211;SDS011;16228;48.800;9.002;2023-08-24T09:48:18;4.57;;;3.00;;
211;SDS011;16228;48.800;9.002;2023-08-24T09:50:47;5.05;;;3.05;;
211;SDS011;16228;48.800;9.002;2023-08-24T09:53:16;3.45;;;3.15;;
211;SDS011;16228;48.800;9.002;2023-08-24T09:55:48;4.43;;;2.95;;
211;SDS011;16228;48.800;9.002;2023-08-24T09:58:20;3.75;;;3.22;;
211;SDS011;16228;48.800;9.002;2023-08-24T10:00:48;6.57;;;2.80;;
211;SDS011;16228;48.800;9.002;2023-08-24T10:03:17;4.75;;;3.03;;
211;SDS011;16228;48.800;9.002;2023-08-24T10:05:50;5.60;;;2.65;;
211;SDS011;16228;48.800;9.002;2023-08-24T10:08:20;5.25;;;3.05;;
211;SDS011;16228;48.800;9.002;2023-08-24T10:10:52;2.78;;;2.50;;
211;SDS011;16228;48.800;9.002;2023-08-24T10:13:24;4.18;;;2.60;;
211;SDS011;16228;48.800;9.002;2023-08-24T10:15:58;5.30;;;3.78;;
211;SDS011;16228;48.800;9.002;2023-08-24T10:18:26;4.20;;;2.80;;
211;SDS011;16228;48.800;9.002;2023-08-24T10:20:53;7.18;;;3.10;;
211;SDS011;16228;48.800;9.002;2023-08-24T10:23:22;4.85;;;2.95;;
211;SDS011;16228;48.800;9.002;2023-08-24T10:25:50;3.28;;;2.97;;
211;SDS011;16228;48.800;9.002;2023-08-24T10:28:18;4.45;;;2.72;;
211;SDS011;16228;48.800;9.002;2023-08-24T10:30:48;4.63;;;2.80;;
211;SDS011;16228;48.800;9.002;2023-08-24T10:33:15;3.58;;;2.30;;
211;SDS011;16228;48.800;9.002;2023-08-24T10:35:43;3.00;;;2.20;;
211;SDS011;16228;48.800;9.002;2023-08-24T10:38:22;2.65;;;2.45;;
211;SDS011;16228;48.800;9.002;2023-08-24T10:40:51;5.10;;;2.75;;
211;SDS011;16228;48.800;9.002;2023-08-24T10:43:18;6.07;;;2.90;;
211;SDS011;16228;48.800;9.002;2023-08-24T10:45:57;3.20;;;2.55;;
211;SDS011;16228;48.800;9.002;2023-08-24T10:48:26;6.18;;;2.35;;
211;SDS011;16228;48.800;9.002;2023-08-24T10:53:45;4.63;;;2.65;;
211;SDS011;16228;48.800;9.002;2023-08-24T10:56:13;4.25;;;3.20;;
211;SDS011;16228;48.800;9.002;2023-08-24T10:58:41;3.35;;;3.05;;
211;SDS011;16228;48.800;9.002;2023-08-24T11:01:21;6.00;;;3.20;;
211;SDS011;16228;48.800;9.002;2023-08-24T11:03:49;3.47;;;3.08;;
211;SDS011;16228;48.800;9.002;2023-08-24T11:06:20;4.68;;;3.80;;
211;SDS011;16228;48.800;9.002;2023-08-24T11:08:48;5.05;;;3.38;;
211;SDS011;16228;48.800;9.002;2023-08-24T11:11:18;7.28;;;3.60;;
211;SDS011;16228;48.800;9.002;2023-08-24T11:16:42;6.97;;;3.97;;
211;SDS011;16228;48.800;9.002;2023-08-24T11:19:10;3.80;;;3.05;;
211;SDS011;16228;48.800;9.002;2023-08-24T11:21:38;5.75;;;3.78;;
211;SDS011;16228;48.800;9.002;2023-08-24T11:24:06;4.32;;;3.40;;
211;SDS011;16228;48.800;9.002;2023-08-24T11:26:34;6.10;;;3.13;;
211;SDS011;16228;48.800;9.002;2023-08-24T11:29:04;5.65;;;3.40;;
211;SDS011;16228;48.800;9.002;2023-08-24T11:31:32;7.18;;;3.85;;
211;SDS011;16228;48.800;9.002;2023-08-24T11:34:02;7.50;;;3.58;;
211;SDS011;16228;48.800;9.002;2023-08-24T11:36:29;3.78;;;3.20;;
211;SDS011;16228;48.800;9.002;2023-08-24T11:38:57;4.63;;;3.80;;
211;SDS011;16228;48.800;9.002;2023-08-24T11:41:25;5.70;;;3.75;;
211;SDS011;16228;48.800;9.002;2023-08-24T11:43:58;4.10;;;3.25;;
211;SDS011;16228;48.800;9.002;2023-08-24T11:46:28;5.22;;;3.63;;
211;SDS011;16228;48.800;9.002;2023-08-24T11:48:56;6.28;;;3.65;;
211;SDS011;16228;48.800;9.002;2023-08-24T11:51:25;3.50;;;3.22;;
211;SDS011;16228;48.800;9.002;2023-08-24T11:53:52;6.93;;;3.55;;
211;SDS011;16228;48.800;9.002;2023-08-24T11:56:19;4.63;;;3.42;;
211;SDS011;16228;48.800;9.002;2023-08-24T11:58:49;6.93;;;3.50;;
211;SDS011;16228;48.800;9.002;2023-08-24T12:01:17;6.75;;;3.72;;
211;SDS011;16228;48.800;9.002;2023-08-24T12:03:45;9.27;;;3.92;;
211;SDS011;16228;48.800;9.002;2023-08-24T12:06:12;6.20;;;4.07;;
211;SDS011;16228;48.800;9.002;2023-08-24T12:08:42;6.97;;;3.83;;
211;SDS011;16228;48.800;9.002;2023-08-24T12:11:15;5.78;;;4.20;;
211;SDS011;16228;48.800;9.002;2023-08-24T12:13:43;5.88;;;3.90;;
211;SDS011;16228;48.800;9.002;2023-08-24T12:16:12;5.13;;;3.90;;
211;SDS011;16228;48.800;9.002;2023-08-24T12:18:48;8.85;;;3.58;;
211;SDS011;16228;48.800;9.002;2023-08-24T12:21:19;4.80;;;4.10;;
211;SDS011;16228;48.800;9.002;2023-08-24T12:23:56;7.13;;;3.92;;
211;SDS011;16228;48.800;9.002;2023-08-24T12:26:26;5.85;;;4.03;;
211;SDS011;16228;48.800;9.002;2023-08-24T12:28:55;7.28;;;3.55;;
211;SDS011;16228;48.800;9.002;2023-08-24T12:31:28;5.63;;;3.38;;
211;SDS011;16228;48.800;9.002;2023-08-24T12:33:59;6.05;;;4.25;;
211;SDS011;16228;48.800;9.002;2023-08-24T12:36:28;4.85;;;3.53;;
211;SDS011;16228;48.800;9.002;2023-08-24T12:38:57;8.43;;;3.85;;
211;SDS011;16228;48.800;9.002;2023-08-24T12:41:24;6.18;;;4.20;;
211;SDS011;16228;48.800;9.002;2023-08-24T12:43:51;7.65;;;4.13;;
211;SDS011;16228;48.800;9.002;2023-08-24T12:46:18;8.25;;;3.92;;
211;SDS011;16228;48.800;9.002;2023-08-24T12:48:45;8.90;;;3.90;;
211;SDS011;16228;48.800;9.002;2023-08-24T12:51:12;5.63;;;3.85;;
211;SDS011;16228;48.800;9.002;2023-08-24T12:53:39;5.20;;;4.00;;
211;SDS011;16228;48.800;9.002;2023-08-24T12:56:08;7.20;;;3.85;;
211;SDS011;16228;48.800;9.002;2023-08-24T12:58:35;5.90;;;3.85;;
211;SDS011;16228;48.800;9.002;2023-08-24T13:01:02;6.45;;;4.07;;
211;SDS011;16228;48.800;9.002;2023-08-24T13:03:30;6.45;;;3.28;;
211;SDS011;16228;48.800;9.002;2023-08-24T13:05:57;5.93;;;3.72;;
211;SDS011;16228;48.800;9.002;2023-08-24T13:08:24;5.97;;;3.70;;
211;SDS011;16228;48.800;9.002;2023-08-24T13:10:51;7.38;;;4.13;;
211;SDS011;16228;48.800;9.002;2023-08-24T13:13:20;6.72;;;3.88;;
211;SDS011;16228;48.800;9.002;2023-08-24T13:15:48;6.53;;;3.75;;
211;SDS011;16228;48.800;9.002;2023-08-24T13:18:16;8.40;;;4.30;;
211;SDS011;16228;48.800;9.002;2023-08-24T13:20:43;7.72;;;3.83;;
211;SDS011;16228;48.800;9.002;2023-08-24T13:23:10;6.25;;;3.92;;
211;SDS011;16228;48.800;9.002;2023-08-24T13:25:37;8.80;;;4.25;;
211;SDS011;16228;48.800;9.002;2023-08-24T13:28:04;14.25;;;11.68;;
211;SDS011;16228;48.800;9.002;2023-08-24T13:30:33;8.77;;;5.85;;
211;SDS011;16228;48.800;9.002;2023-08-24T13:33:00;10.38;;;5.00;;
211;SDS011;16228;48.800;9.002;2023-08-24T13:35:27;29.08;;;22.58;;
211;SDS011;16228;48.800;9.002;2023-08-24T13:37:54;17.67;;;12.85;;
211;SDS011;16228;48.800;9.002;2023-08-24T13:40:21;6.55;;;3.80;;
211;SDS011;16228;48.800;9.002;2023-08-24T13:42:48;8.43;;;3.75;;
211;SDS011;16228;48.800;9.002;2023-08-24T13:45:15;7.93;;;4.35;;
211;SDS011;16228;48.800;9.002;2023-08-24T13:47:43;11.50;;;4.32;;
211;SDS011;16228;48.800;9.002;2023-08-24T13:50:12;9.60;;;3.90;;
211;SDS011;16228;48.800;9.002;2023-08-24T13:52:39;7.78;;;3.78;;
211;SDS011;16228;48.800;9.002;2023-08-24T13:55:07;8.77;;;5.50;;
211;SDS011;16228;48.800;9.002;2023-08-24T13:57:34;6.85;;;3.80;;
211;SDS011;16228;48.800;9.002;2023-08-24T14:00:01;9.80;;;3.83;;
211;SDS011;16228;48.800;9.002;2023-08-24T14:02:29;8.77;;;4.03;;
211;SDS011;16228;48.800;9.002;2023-08-24T14:04:57;8.63;;;3.70;;
211;SDS011;16228;48.800;9.002;2023-08-24T14:07:25;8.20;;;3.65;;
211;SDS011;16228;48.800;9.002;2023-08-24T14:09:52;6.75;;;3.15;;
211;SDS011;16228;48.800;9.002;2023-08-24T14:12:19;8.95;;;3.47;;
211;SDS011;16228;48.800;9.002;2023-08-24T14:14:46;10.90;;;3.58;;
211;SDS011;16228;48.800;9.002;2023-08-24T14:17:13;6.13;;;3.58;;
211;SDS011;16228;48.800;9.002;2023-08-24T14:19:39;10.02;;;3.55;;
211;SDS011;16228;48.800;9.002;2023-08-24T14:22:08;13.30;;;3.85;;
211;SDS011;16228;48.800;9.002;2023-08-24T14:24:35;9.98;;;3.60;;
211;SDS011;16228;48.800;9.002;2023-08-24T14:27:02;10.13;;;3.75;;
211;SDS011;16228;48.800;9.002;2023-08-24T14:29:29;8.57;;;3.97;;
211;SDS011;16228;48.800;9.002;2023-08-24T14:31:56;8.07;;;3.53;;
211;SDS011;16228;48.800;9.002;2023-08-24T14:34:23;8.20;;;4.00;;
211;SDS011;16228;48.800;9.002;2023-08-24T14:36:50;6.55;;;3.33;;
211;SDS011;16228;48.800;9.002;2023-08-24T14:39:19;7.30;;;3.65;;
211;SDS011;16228;48.800;9.002;2023-08-24T14:41:46;10.52;;;4.15;;
211;SDS011;16228;48.800;9.002;2023-08-24T14:44:13;5.72;;;4.22;;
211;SDS011;16228;48.800;9.002;2023-08-24T14:46:40;21.80;;;4.65;;
211;SDS011;16228;48.800;9.002;2023-08-24T14:49:07;38.17;;;6.13;;
211;SDS011;16228;48.800;9.002;2023-08-24T14:51:34;34.80;;;10.50;;
211;SDS011;16228;48.800;9.002;2023-08-24T14:54:01;26.60;;;10.73;;
211;SDS011;16228;48.800;9.002;2023-08-24T14:56:29;24.20;;;9.03;;
211;SDS011;16228;48.800;9.002;2023-08-24T14:58:56;15.57;;;9.63;;
211;SDS011;16228;48.800;9.002;2023-08-24T15:01:23;13.83;;;10.47;;
211;SDS011;16228;48.800;9.002;2023-08-24T15:03:50;13.30;;;8.17;;
211;SDS011;16228;48.800;9.002;2023-08-24T15:06:17;15.43;;;9.27;;
211;SDS011;16228;48.800;9.002;2023-08-24T15:08:44;7.30;;;6.13;;
211;SDS011;16228;48.800;9.002;2023-08-24T15:11:13;7.73;;;6.93;;
211;SDS011;16228;48.800;9.002;2023-08-24T15:13:42;5.93;;;5.33;;
211;SDS011;16228;48.800;9.002;2023-08-24T15:16:09;7.37;;;4.40;;
211;SDS011;16228;48.800;9.002;2023-08-24T15:18:36;8.23;;;4.87;;
211;SDS011;16228;48.800;9.002;2023-08-24T15:21:04;6.03;;;5.53;;